createdAt,value
2023-04-23T00:00:20.852Z,100.00
2023-04-23T00:02:49.888Z,100.00
2023-04-23T00:05:16.801Z,100.00
2023-04-23T00:07:43.426Z,100.00
2023-04-23T00:10:10.125Z,100.00
2023-04-23T00:12:36.540Z,100.00
2023-04-23T00:15:04.037Z,100.00
2023-04-23T00:17:30.487Z,100.00
2023-04-23T00:19:56.965Z,100.00
2023-04-23T00:22:23.397Z,100.00
2023-04-23T00:24:49.879Z,100.00
2023-04-23T00:27:18.106Z,100.00
2023-04-23T00:29:46.358Z,100.00
2023-04-23T00:32:14.581Z,100.00
2023-04-23T00:34:42.174Z,100.00
2023-04-23T00:37:08.997Z,100.00
2023-04-23T00:39:38.755Z,100.00
2023-04-23T00:42:11.544Z,100.00
2023-04-23T00:44:38.963Z,100.00
2023-04-23T00:47:05.915Z,100.00
2023-04-23T00:49:33.005Z,100.00
2023-04-23T00:52:00.661Z,100.00
2023-04-23T00:54:27.516Z,100.00
2023-04-23T00:56:54.724Z,100.00
2023-04-23T00:59:21.734Z,100.00
2023-04-23T01:01:48.294Z,100.00
2023-04-23T01:04:16.230Z,100.00
2023-04-23T01:06:43.969Z,100.00
2023-04-23T01:09:10.485Z,100.00
2023-04-23T01:11:42.218Z,100.00
2023-04-23T01:14:09.051Z,100.00
2023-04-23T01:16:37.579Z,100.00
2023-04-23T01:19:08.221Z,100.00
2023-04-23T01:21:35.100Z,100.00
2023-04-23T01:24:02.251Z,100.00
2023-04-23T01:26:28.763Z,100.00
2023-04-23T01:28:55.389Z,100.00
2023-04-23T01:31:22.590Z,100.00
2023-04-23T01:33:51.098Z,100.00
2023-04-23T01:36:19.213Z,100.00
2023-04-23T01:38:46.059Z,100.00
2023-04-23T01:41:12.474Z,100.00
2023-04-23T01:43:39.968Z,100.00
2023-04-23T01:46:06.465Z,100.00
2023-04-23T01:48:37.471Z,100.00
2023-04-23T01:51:03.877Z,100.00
2023-04-23T01:53:30.552Z,100.00
2023-04-23T01:55:57.240Z,100.00
2023-04-23T01:58:24.501Z,100.00
2023-04-23T02:00:50.959Z,100.00
2023-04-23T02:03:17.758Z,100.00
2023-04-23T02:05:44.782Z,100.00
2023-04-23T02:08:11.247Z,100.00
2023-04-23T02:10:37.649Z,100.00
2023-04-23T02:13:04.042Z,100.00
2023-04-23T02:15:30.490Z,100.00
2023-04-23T02:17:56.926Z,100.00
2023-04-23T02:20:23.442Z,100.00
2023-04-23T02:22:50.895Z,100.00
2023-04-23T02:25:18.853Z,100.00
2023-04-23T02:27:45.390Z,100.00
2023-04-23T02:30:12.451Z,100.00
2023-04-23T02:32:38.992Z,100.00
2023-04-23T02:35:06.683Z,100.00
2023-04-23T02:37:33.676Z,100.00
2023-04-23T02:40:00.058Z,100.00
2023-04-23T02:42:26.470Z,100.00
2023-04-23T02:44:53.009Z,100.00
2023-04-23T02:47:19.418Z,100.00
2023-04-23T02:49:45.853Z,100.00
2023-04-23T02:52:12.269Z,100.00
2023-04-23T02:54:38.884Z,100.00
2023-04-23T02:57:06.080Z,100.00
2023-04-23T02:59:32.814Z,100.00
2023-04-23T03:02:00.240Z,100.00
2023-04-23T03:04:26.906Z,100.00
2023-04-23T03:06:53.331Z,100.00
2023-04-23T03:09:19.793Z,100.00
2023-04-23T03:11:46.133Z,100.00
2023-04-23T03:14:12.548Z,100.00
2023-04-23T03:16:44.211Z,100.00
2023-04-23T03:19:10.878Z,100.00
2023-04-23T03:21:37.276Z,100.00
2023-04-23T03:24:03.789Z,100.00
2023-04-23T03:26:30.324Z,100.00
2023-04-23T03:28:56.737Z,100.00
2023-04-23T03:31:23.206Z,100.00
2023-04-23T03:33:49.627Z,100.00
2023-04-23T03:36:16.151Z,100.00
2023-04-23T03:38:42.625Z,100.00
2023-04-23T03:41:09.100Z,100.00
2023-04-23T03:43:35.534Z,100.00
2023-04-23T03:46:01.937Z,100.00
2023-04-23T03:48:28.371Z,100.00
2023-04-23T03:50:54.822Z,100.00
2023-04-23T03:53:21.680Z,100.00
2023-04-23T03:55:48.126Z,100.00
2023-04-23T03:58:14.561Z,100.00
2023-04-23T04:00:41.287Z,100.00
2023-04-23T04:03:08.961Z,100.00
2023-04-23T04:05:35.691Z,100.00
2023-04-23T04:08:02.206Z,100.00
2023-04-23T04:10:28.661Z,100.00
2023-04-23T04:12:55.343Z,100.00
2023-04-23T04:15:21.746Z,100.00
2023-04-23T04:17:48.169Z,100.00
2023-04-23T04:20:14.649Z,100.00
2023-04-23T04:22:41.143Z,100.00
2023-04-23T04:25:07.974Z,100.00
2023-04-23T04:27:35.475Z,100.00
2023-04-23T04:30:02.030Z,100.00
2023-04-23T04:32:28.626Z,100.00
2023-04-23T04:34:55.077Z,100.00
2023-04-23T04:37:21.675Z,100.00
2023-04-23T04:39:48.090Z,100.00
2023-04-23T04:42:15.674Z,100.00
2023-04-23T04:44:43.615Z,100.00
2023-04-23T04:47:10.804Z,100.00
2023-04-23T04:49:38.276Z,100.00
2023-04-23T04:52:04.737Z,100.00
2023-04-23T04:54:31.116Z,100.00
2023-04-23T04:56:57.515Z,100.00
2023-04-23T04:59:23.971Z,100.00
2023-04-23T05:01:50.499Z,100.00
2023-04-23T05:04:17.338Z,100.00
2023-04-23T05:06:44.358Z,100.00
2023-04-23T05:09:11.188Z,100.00
2023-04-23T05:11:37.765Z,100.00
2023-04-23T05:14:04.682Z,100.00
2023-04-23T05:16:31.211Z,100.00
2023-04-23T05:18:57.982Z,100.00
2023-04-23T05:21:24.404Z,100.00
2023-04-23T05:23:50.835Z,100.00
2023-04-23T05:26:18.219Z,100.00
2023-04-23T05:28:44.659Z,100.00
2023-04-23T05:31:11.497Z,100.00
2023-04-23T05:33:49.330Z,100.00
2023-04-23T05:36:17.145Z,100.00
2023-04-23T05:38:43.624Z,100.00
2023-04-23T05:41:10.177Z,100.00
2023-04-23T05:43:36.611Z,100.00
2023-04-23T05:46:04.770Z,100.00
2023-04-23T05:48:31.932Z,100.00
2023-04-23T05:50:58.475Z,100.00
2023-04-23T05:53:27.861Z,100.00
2023-04-23T05:55:54.267Z,100.00
2023-04-23T05:58:21.814Z,100.00
2023-04-23T06:00:48.459Z,100.00
2023-04-23T06:03:15.191Z,100.00
2023-04-23T06:05:43.294Z,100.00
2023-04-23T06:08:09.853Z,100.00
2023-04-23T06:10:36.283Z,100.00
2023-04-23T06:13:02.906Z,100.00
2023-04-23T06:15:29.338Z,100.00
2023-04-23T06:17:55.926Z,100.00
2023-04-23T06:20:22.508Z,100.00
2023-04-23T06:22:48.931Z,100.00
2023-04-23T06:25:15.387Z,100.00
2023-04-23T06:27:41.821Z,100.00
2023-04-23T06:30:08.747Z,100.00
2023-04-23T06:32:35.173Z,100.00
2023-04-23T06:35:02.443Z,100.00
2023-04-23T06:37:30.842Z,100.00
2023-04-23T06:39:58.602Z,100.00
2023-04-23T06:42:25.097Z,100.00
2023-04-23T06:44:51.991Z,100.00
2023-04-23T06:47:19.639Z,100.00
2023-04-23T06:49:46.527Z,100.00
2023-04-23T06:52:13.011Z,100.00
2023-04-23T06:54:39.759Z,100.00
2023-04-23T06:57:06.538Z,100.00
2023-04-23T06:59:32.989Z,100.00
2023-04-23T07:02:00.619Z,100.00
2023-04-23T07:04:27.159Z,100.00
2023-04-23T07:06:53.597Z,100.00
2023-04-23T07:09:20.015Z,100.00
2023-04-23T07:11:46.510Z,100.00
2023-04-23T07:14:12.933Z,100.00
2023-04-23T07:16:40.475Z,100.00
2023-04-23T07:19:06.873Z,100.00
2023-04-23T07:21:33.557Z,100.00
2023-04-23T07:24:00.848Z,100.00
2023-04-23T07:26:28.101Z,100.00
2023-04-23T07:28:54.730Z,100.00
2023-04-23T07:31:21.954Z,100.00
2023-04-23T07:33:48.470Z,100.00
2023-04-23T07:36:14.978Z,100.00
2023-04-23T07:38:41.874Z,100.00
2023-04-23T07:41:08.321Z,100.00
2023-04-23T07:43:34.751Z,100.00
2023-04-23T07:46:01.881Z,100.00
2023-04-23T07:48:28.432Z,100.00
2023-04-23T07:50:56.616Z,100.00
2023-04-23T07:53:23.019Z,100.00
2023-04-23T07:55:49.423Z,100.00
2023-04-23T07:58:15.791Z,100.00
2023-04-23T08:00:42.249Z,100.00
2023-04-23T08:03:08.745Z,100.00
2023-04-23T08:05:37.302Z,100.00
2023-04-23T08:08:03.805Z,100.00
2023-04-23T08:10:30.244Z,100.00
2023-04-23T08:12:56.652Z,100.00
2023-04-23T08:15:24.137Z,100.00
2023-04-23T08:17:50.766Z,100.00
2023-04-23T08:20:18.142Z,100.00
2023-04-23T08:22:44.711Z,100.00
2023-04-23T08:25:12.815Z,100.00
2023-04-23T08:27:39.310Z,100.00
2023-04-23T08:30:06.867Z,100.00
2023-04-23T08:32:33.335Z,100.00
2023-04-23T08:34:59.852Z,100.00
2023-04-23T08:37:31.022Z,100.00
2023-04-23T08:39:57.899Z,100.00
2023-04-23T08:42:30.296Z,100.00
2023-04-23T08:44:56.977Z,100.00
2023-04-23T08:47:24.418Z,100.00
2023-04-23T08:49:53.903Z,100.00
2023-04-23T08:52:44.410Z,100.00
2023-04-23T08:55:10.882Z,100.00
2023-04-23T08:57:39.034Z,100.00
2023-04-23T09:00:06.543Z,100.00
2023-04-23T09:02:34.071Z,100.00
2023-04-23T09:05:02.384Z,100.00
2023-04-23T09:07:30.033Z,100.00
2023-04-23T09:09:57.068Z,100.00
2023-04-23T09:12:23.550Z,100.00
2023-04-23T09:14:51.008Z,100.00
2023-04-23T09:17:18.295Z,100.00
2023-04-23T09:19:46.752Z,100.00
2023-04-23T09:22:13.170Z,100.00
2023-04-23T09:24:42.711Z,100.00
2023-04-23T09:27:09.467Z,100.00
2023-04-23T09:29:35.933Z,100.00
2023-04-23T09:32:09.130Z,100.00
2023-04-23T09:34:37.619Z,100.00
2023-04-23T09:37:05.084Z,100.00
2023-04-23T09:39:33.370Z,100.00
2023-04-23T09:42:05.985Z,100.00
2023-04-23T09:44:33.407Z,100.00
2023-04-23T09:47:06.462Z,100.00
2023-04-23T09:49:32.863Z,100.00
2023-04-23T09:52:05.673Z,100.00
2023-04-23T09:54:32.044Z,100.00
2023-04-23T09:57:00.931Z,100.00
2023-04-23T10:02:04.458Z,100.00
2023-04-23T10:04:31.006Z,100.00
2023-04-23T10:07:13.637Z,100.00
2023-04-23T10:09:44.407Z,100.00
2023-04-23T10:12:24.218Z,100.00
2023-04-23T10:14:59.766Z,100.00
2023-04-23T10:17:27.385Z,100.00
2023-04-23T10:19:55.651Z,98.03
2023-04-23T10:22:23.073Z,100.00
2023-04-23T10:24:53.090Z,100.00
2023-04-23T10:27:28.822Z,100.00
2023-04-23T10:30:06.298Z,100.00
2023-04-23T10:32:36.104Z,100.00
2023-04-23T10:35:02.598Z,100.00
2023-04-23T10:37:29.085Z,100.00
2023-04-23T10:39:56.450Z,95.15
2023-04-23T10:42:23.335Z,98.96
2023-04-23T10:44:59.402Z,100.00
2023-04-23T10:47:31.336Z,100.00
2023-04-23T10:49:57.756Z,100.00
2023-04-23T10:52:25.931Z,100.00
2023-04-23T10:55:01.981Z,100.00
2023-04-23T10:57:28.522Z,100.00
2023-04-23T10:59:56.286Z,100.00
2023-04-23T11:02:26.256Z,100.00
2023-04-23T11:04:57.363Z,95.14
2023-04-23T11:07:34.183Z,98.90
2023-04-23T11:10:01.213Z,100.00
2023-04-23T11:12:28.334Z,96.99
2023-04-23T11:14:55.338Z,97.07
2023-04-23T11:17:41.708Z,96.77
2023-04-23T11:20:13.820Z,91.42
2023-04-23T11:22:41.494Z,92.34
2023-04-23T11:25:11.977Z,86.53
2023-04-23T11:27:39.549Z,100.00
2023-04-23T11:30:07.230Z,89.67
2023-04-23T11:32:33.715Z,82.26
2023-04-23T11:35:02.823Z,88.21
2023-04-23T11:37:29.268Z,85.23
2023-04-23T11:39:56.586Z,94.71
2023-04-23T11:42:23.274Z,86.56
2023-04-23T11:44:49.652Z,89.81
2023-04-23T11:47:19.313Z,92.44
2023-04-23T11:49:46.194Z,87.60
2023-04-23T11:52:14.415Z,87.35
2023-04-23T11:54:41.522Z,85.39
2023-04-23T11:57:08.522Z,89.31
2023-04-23T11:59:34.959Z,91.60
2023-04-23T12:02:01.442Z,87.06
2023-04-23T12:04:28.894Z,88.26
2023-04-23T12:06:56.126Z,89.86
2023-04-23T12:09:23.667Z,88.94
2023-04-23T12:11:53.075Z,85.66
2023-04-23T12:14:28.745Z,82.87
2023-04-23T12:16:55.983Z,84.12
2023-04-23T12:19:27.378Z,86.79
2023-04-23T12:21:55.773Z,89.94
2023-04-23T12:24:33.097Z,83.87
2023-04-23T12:27:02.896Z,79.73
2023-04-23T12:29:30.253Z,78.89
2023-04-23T12:31:58.487Z,81.85
2023-04-23T12:34:25.070Z,79.00
2023-04-23T12:36:52.953Z,74.93
2023-04-23T12:39:27.417Z,70.93
2023-04-23T12:41:54.522Z,71.84
2023-04-23T12:44:21.297Z,77.46
2023-04-23T12:46:57.042Z,76.08
2023-04-23T12:49:24.966Z,73.78
2023-04-23T12:51:52.670Z,71.01
2023-04-23T12:54:19.594Z,72.42
2023-04-23T12:56:46.999Z,75.94
2023-04-23T12:59:13.415Z,76.50
2023-04-23T13:01:39.908Z,75.12
2023-04-23T13:04:06.526Z,70.73
2023-04-23T13:06:33.071Z,69.36
2023-04-23T13:09:02.233Z,69.32
2023-04-23T13:11:28.629Z,69.28
2023-04-23T13:13:55.079Z,70.66
2023-04-23T13:16:21.677Z,75.97
2023-04-23T13:18:48.347Z,76.97
2023-04-23T13:21:14.754Z,73.53
2023-04-23T13:23:41.187Z,71.90
2023-04-23T13:26:09.601Z,71.63
2023-04-23T13:28:36.335Z,69.61
2023-04-23T13:31:03.094Z,70.13
2023-04-23T13:33:31.271Z,70.40
2023-04-23T13:36:00.623Z,72.02
2023-04-23T13:38:29.236Z,72.38
2023-04-23T13:40:55.858Z,72.39
2023-04-23T13:43:22.269Z,72.60
2023-04-23T13:45:48.812Z,73.44
2023-04-23T13:48:15.647Z,70.78
2023-04-23T13:50:45.300Z,68.80
2023-04-23T13:53:12.111Z,68.55
2023-04-23T13:55:38.770Z,69.67
2023-04-23T13:58:06.828Z,69.35
2023-04-23T14:00:34.345Z,68.95
2023-04-23T14:03:00.906Z,69.72
2023-04-23T14:05:27.519Z,64.72
2023-04-23T14:07:53.927Z,67.20
2023-04-23T14:10:20.374Z,66.94
2023-04-23T14:12:46.853Z,68.60
2023-04-23T14:15:13.531Z,68.34
2023-04-23T14:17:40.820Z,69.35
2023-04-23T14:20:07.828Z,69.41
2023-04-23T14:22:35.522Z,66.09
2023-04-23T14:25:02.835Z,65.71
2023-04-23T14:27:34.198Z,67.31
2023-04-23T14:30:05.162Z,69.30
2023-04-23T14:32:32.067Z,70.52
2023-04-23T14:35:00.640Z,66.03
2023-04-23T14:37:30.726Z,66.95
2023-04-23T14:39:57.154Z,68.07
2023-04-23T14:42:23.586Z,66.97
2023-04-23T14:44:50.473Z,66.76
2023-04-23T14:47:19.552Z,67.75
2023-04-23T14:49:46.242Z,67.72
2023-04-23T14:52:12.766Z,67.90
2023-04-23T14:54:39.275Z,68.97
2023-04-23T14:57:05.807Z,68.75
2023-04-23T14:59:32.260Z,68.18
2023-04-23T15:01:59.969Z,69.69
2023-04-23T15:04:27.208Z,68.67
2023-04-23T15:06:54.005Z,68.60
2023-04-23T15:09:20.442Z,67.59
2023-04-23T15:11:46.872Z,66.60
2023-04-23T15:14:13.293Z,67.54
2023-04-23T15:16:48.840Z,66.00
2023-04-23T15:19:20.789Z,66.13
2023-04-23T15:21:49.789Z,69.31
2023-04-23T15:24:16.758Z,68.74
2023-04-23T15:26:43.684Z,66.14
2023-04-23T15:29:10.618Z,66.53
2023-04-23T15:31:37.678Z,67.21
2023-04-23T15:34:06.321Z,66.95
2023-04-23T15:36:33.417Z,63.12
2023-04-23T15:39:02.921Z,66.93
2023-04-23T15:41:29.467Z,65.86
2023-04-23T15:43:56.665Z,65.32
2023-04-23T15:46:24.226Z,65.13
2023-04-23T15:48:50.842Z,65.56
2023-04-23T15:51:17.805Z,67.50
2023-04-23T15:53:44.395Z,67.82
2023-04-23T15:56:10.827Z,66.78
2023-04-23T15:59:22.308Z,66.45
2023-04-23T16:01:48.814Z,66.44
2023-04-23T16:04:15.976Z,65.42
2023-04-23T16:06:42.550Z,66.09
2023-04-23T16:09:09.129Z,65.26
2023-04-23T16:11:38.851Z,66.36
2023-04-23T16:14:06.237Z,66.40
2023-04-23T16:16:32.978Z,65.14
2023-04-23T16:18:59.690Z,64.40
2023-04-23T16:21:27.945Z,66.74
2023-04-23T16:23:55.354Z,66.00
2023-04-23T16:26:21.846Z,64.77
2023-04-23T16:28:52.284Z,64.83
2023-04-23T16:31:27.397Z,63.97
2023-04-23T16:33:53.907Z,64.17
2023-04-23T16:36:21.366Z,63.64
2023-04-23T16:38:49.556Z,63.63
2023-04-23T16:41:17.930Z,63.73
2023-04-23T16:43:44.382Z,64.21
2023-04-23T16:46:30.972Z,65.00
2023-04-23T16:49:00.833Z,65.22
2023-04-23T16:51:29.424Z,64.49
2023-04-23T16:53:58.792Z,63.35
2023-04-23T16:56:25.372Z,63.59
2023-04-23T16:58:51.952Z,65.14
2023-04-23T17:01:18.464Z,64.46
2023-04-23T17:03:45.775Z,65.19
2023-04-23T17:06:20.198Z,66.38
2023-04-23T17:08:49.677Z,67.11
2023-04-23T17:11:16.117Z,67.73
2023-04-23T17:13:45.583Z,67.47
2023-04-23T17:16:12.157Z,67.08
2023-04-23T17:18:38.576Z,67.92
2023-04-23T17:21:05.009Z,68.79
2023-04-23T17:23:32.473Z,69.72
2023-04-23T17:25:58.904Z,68.40
2023-04-23T17:28:25.533Z,69.34
2023-04-23T17:30:53.876Z,69.21
2023-04-23T17:33:20.914Z,68.89
2023-04-23T17:35:48.991Z,70.49
2023-04-23T17:38:20.235Z,69.55
2023-04-23T17:40:47.612Z,70.18
2023-04-23T17:43:14.070Z,70.55
2023-04-23T17:45:40.778Z,71.59
2023-04-23T17:48:07.436Z,70.99
2023-04-23T17:50:34.030Z,71.08
2023-04-23T17:53:00.898Z,71.24
2023-04-23T17:55:27.314Z,71.29
2023-04-23T17:57:53.766Z,73.22
2023-04-23T18:00:20.207Z,75.38
2023-04-23T18:02:46.930Z,77.58
2023-04-23T18:05:14.614Z,77.04
2023-04-23T18:07:43.952Z,75.35
2023-04-23T18:10:12.196Z,75.76
2023-04-23T18:12:38.855Z,79.30
2023-04-23T18:15:05.674Z,82.25
2023-04-23T18:17:32.426Z,84.29
2023-04-23T18:19:58.880Z,85.23
2023-04-23T18:22:25.290Z,87.87
2023-04-23T18:24:51.794Z,91.93
2023-04-23T18:27:18.224Z,92.92
2023-04-23T18:29:45.610Z,95.92
2023-04-23T18:32:20.904Z,95.26
2023-04-23T18:34:56.490Z,94.83
2023-04-23T18:37:42.550Z,96.75
2023-04-23T18:40:09.259Z,98.57
2023-04-23T18:42:35.781Z,97.83
2023-04-23T18:45:04.223Z,98.60
2023-04-23T18:47:32.024Z,99.12
2023-04-23T18:50:05.314Z,98.60
2023-04-23T18:52:31.980Z,98.89
2023-04-23T18:54:58.400Z,98.56
2023-04-23T18:57:26.836Z,99.04
2023-04-23T18:59:53.384Z,100.00
2023-04-23T19:02:34.583Z,100.00
2023-04-23T19:05:03.551Z,100.00
2023-04-23T19:07:30.040Z,100.00
2023-04-23T19:09:56.609Z,100.00
2023-04-23T19:12:23.016Z,100.00
2023-04-23T19:14:49.408Z,100.00
2023-04-23T19:17:18.483Z,100.00
2023-04-23T19:19:45.348Z,100.00
2023-04-23T19:22:11.762Z,100.00
2023-04-23T19:24:38.156Z,100.00
2023-04-23T19:27:05.509Z,100.00
2023-04-23T19:29:31.949Z,100.00
2023-04-23T19:31:58.420Z,100.00
2023-04-23T19:34:26.251Z,100.00
2023-04-23T19:36:52.663Z,100.00
2023-04-23T19:39:19.154Z,100.00
2023-04-23T19:41:45.940Z,100.00
2023-04-23T19:44:12.329Z,100.00
2023-04-23T19:46:38.728Z,100.00
2023-04-23T19:49:05.220Z,100.00
2023-04-23T19:51:35.527Z,100.00
2023-04-23T19:54:02.416Z,100.00
2023-04-23T19:56:28.825Z,100.00
2023-04-23T19:58:55.806Z,100.00
2023-04-23T20:01:22.524Z,100.00
2023-04-23T20:03:50.884Z,100.00
2023-04-23T20:06:17.349Z,100.00
2023-04-23T20:09:03.752Z,100.00
2023-04-23T20:11:31.340Z,100.00
2023-04-23T20:13:57.805Z,100.00
2023-04-23T20:16:24.379Z,100.00
2023-04-23T20:18:52.890Z,100.00
2023-04-23T20:21:19.306Z,100.00
2023-04-23T20:23:45.846Z,100.00
2023-04-23T20:26:12.451Z,100.00
2023-04-23T20:28:39.131Z,100.00
2023-04-23T20:31:05.653Z,100.00
2023-04-23T20:33:32.932Z,100.00
2023-04-23T20:36:01.663Z,100.00
2023-04-23T20:38:30.779Z,100.00
2023-04-23T20:41:02.397Z,100.00
2023-04-23T20:43:29.666Z,100.00
2023-04-23T20:45:56.775Z,100.00
2023-04-23T20:48:25.804Z,100.00
2023-04-23T20:50:52.582Z,100.00
2023-04-23T20:53:18.994Z,100.00
2023-04-23T20:55:45.413Z,100.00
2023-04-23T20:58:11.882Z,100.00
2023-04-23T21:00:38.348Z,100.00
2023-04-23T21:03:06.143Z,100.00
2023-04-23T21:05:32.662Z,100.00
2023-04-23T21:07:59.233Z,100.00
2023-04-23T21:10:25.732Z,100.00
2023-04-23T21:12:52.405Z,100.00
2023-04-23T21:15:18.965Z,100.00
2023-04-23T21:17:45.529Z,100.00
2023-04-23T21:20:11.992Z,100.00
2023-04-23T21:22:38.716Z,100.00
2023-04-23T21:25:05.372Z,100.00
2023-04-23T21:27:31.968Z,100.00
2023-04-23T21:30:04.798Z,100.00
2023-04-23T21:32:31.321Z,100.00
2023-04-23T21:34:57.772Z,100.00
2023-04-23T21:37:24.184Z,100.00
2023-04-23T21:39:50.564Z,100.00
2023-04-23T21:42:17.007Z,100.00
2023-04-23T21:44:43.460Z,100.00
2023-04-23T21:47:09.905Z,100.00
2023-04-23T21:49:37.135Z,100.00
2023-04-23T21:52:03.544Z,100.00
2023-04-23T21:54:31.056Z,100.00
2023-04-23T21:56:57.452Z,100.00
2023-04-23T21:59:24.755Z,100.00
2023-04-23T22:01:51.286Z,100.00
2023-04-23T22:04:18.260Z,100.00
2023-04-23T22:06:46.517Z,100.00
2023-04-23T22:09:13.543Z,100.00
2023-04-23T22:11:42.478Z,100.00
2023-04-23T22:14:12.731Z,100.00
2023-04-23T22:16:39.616Z,100.00
2023-04-23T22:19:06.109Z,100.00
2023-04-23T22:21:32.987Z,100.00
2023-04-23T22:23:59.387Z,100.00
2023-04-23T22:26:25.799Z,100.00
2023-04-23T22:28:52.196Z,100.00
2023-04-23T22:31:18.700Z,100.00
2023-04-23T22:33:45.214Z,100.00
2023-04-23T22:36:11.648Z,100.00
2023-04-23T22:38:38.843Z,100.00
2023-04-23T22:41:05.288Z,100.00
2023-04-23T22:43:31.700Z,100.00
2023-04-23T22:45:58.141Z,100.00
2023-04-23T22:48:24.565Z,100.00
2023-04-23T22:50:51.069Z,100.00
2023-04-23T22:53:19.616Z,100.00
2023-04-23T22:55:46.545Z,100.00
2023-04-23T22:58:12.986Z,100.00
2023-04-23T23:00:39.388Z,100.00
2023-04-23T23:03:06.137Z,100.00
2023-04-23T23:05:32.667Z,100.00
2023-04-23T23:07:59.099Z,100.00
2023-04-23T23:10:26.567Z,100.00
2023-04-23T23:12:53.103Z,100.00
2023-04-23T23:15:21.506Z,100.00
2023-04-23T23:17:47.901Z,100.00
2023-04-23T23:20:14.719Z,100.00
2023-04-23T23:22:41.128Z,100.00
2023-04-23T23:25:07.848Z,100.00
2023-04-23T23:27:34.369Z,100.00
2023-04-23T23:30:05.565Z,100.00
2023-04-23T23:32:33.637Z,100.00
2023-04-23T23:35:00.404Z,100.00
2023-04-23T23:37:29.517Z,100.00
2023-04-23T23:39:55.984Z,100.00
2023-04-23T23:42:22.426Z,100.00
2023-04-23T23:44:48.856Z,100.00
2023-04-23T23:47:15.305Z,100.00
2023-04-23T23:49:42.111Z,100.00
2023-04-23T23:52:08.765Z,100.00
2023-04-23T23:54:36.028Z,100.00
2023-04-23T23:57:02.560Z,100.00
2023-04-23T23:59:28.991Z,100.00
